sensor_id;sensor_type;location;lat;lon;timestamp;temperature;humidity
21306;DHT22;10812;51.838;5.838;2022-10-03T00:02:02;8.80;99.90
21306;DHT22;10812;51.838;5.838;2022-10-03T00:04:47;8.80;99.90
21306;DHT22;10812;51.838;5.838;2022-10-03T00:07:38;8.70;99.90
21306;DHT22;10812;51.838;5.838;2022-10-03T00:10:21;8.70;99.90
21306;DHT22;10812;51.838;5.838;2022-10-03T00:13:06;8.70;99.90
21306;DHT22;10812;51.838;5.838;2022-10-03T00:15:42;8.70;99.90
21306;DHT22;10812;51.838;5.838;2022-10-03T00:18:23;8.70;99.90
21306;DHT22;10812;51.838;5.838;2022-10-03T00:21:12;8.70;99.90
21306;DHT22;10812;51.838;5.838;2022-10-03T00:23:46;8.70;99.90
21306;DHT22;10812;51.838;5.838;2022-10-03T00:26:22;8.70;99.90
21306;DHT22;10812;51.838;5.838;2022-10-03T00:32:16;8.60;99.90
21306;DHT22;10812;51.838;5.838;2022-10-03T00:34:59;8.60;99.90
21306;DHT22;10812;51.838;5.838;2022-10-03T00:37:32;8.50;99.90
21306;DHT22;10812;51.838;5.838;2022-10-03T00:43:48;8.40;99.90
21306;DHT22;10812;51.838;5.838;2022-10-03T00:46:50;8.40;99.90
21306;DHT22;10812;51.838;5.838;2022-10-03T00:49:51;8.40;99.90
21306;DHT22;10812;51.838;5.838;2022-10-03T00:52:41;8.40;99.90
21306;DHT22;10812;51.838;5.838;2022-10-03T00:55:19;8.40;99.90
21306;DHT22;10812;51.838;5.838;2022-10-03T00:57:59;8.30;99.90
21306;DHT22;10812;51.838;5.838;2022-10-03T01:00:32;8.30;99.90
21306;DHT22;10812;51.838;5.838;2022-10-03T01:03:17;8.30;99.90
21306;DHT22;10812;51.838;5.838;2022-10-03T01:05:56;8.20;99.90
21306;DHT22;10812;51.838;5.838;2022-10-03T01:08:45;8.20;99.90
21306;DHT22;10812;51.838;5.838;2022-10-03T01:11:25;8.10;99.90
21306;DHT22;10812;51.838;5.838;2022-10-03T01:14:07;8.10;99.90
21306;DHT22;10812;51.838;5.838;2022-10-03T01:16:46;8.10;99.90
21306;DHT22;10812;51.838;5.838;2022-10-03T01:19:34;8.10;99.90
21306;DHT22;10812;51.838;5.838;2022-10-03T01:22:19;8.00;99.90
21306;DHT22;10812;51.838;5.838;2022-10-03T01:24:53;8.00;99.90
21306;DHT22;10812;51.838;5.838;2022-10-03T01:27:31;7.90;99.90
21306;DHT22;10812;51.838;5.838;2022-10-03T01:30:26;7.90;99.90
21306;DHT22;10812;51.838;5.838;2022-10-03T01:33:00;7.90;99.90
21306;DHT22;10812;51.838;5.838;2022-10-03T01:35:37;8.00;99.90
21306;DHT22;10812;51.838;5.838;2022-10-03T01:38:16;8.00;99.90
21306;DHT22;10812;51.838;5.838;2022-10-03T01:40:51;7.90;99.90
21306;DHT22;10812;51.838;5.838;2022-10-03T01:43:22;7.90;99.90
21306;DHT22;10812;51.838;5.838;2022-10-03T01:45:59;7.90;99.90
21306;DHT22;10812;51.838;5.838;2022-10-03T01:48:36;7.90;99.90
21306;DHT22;10812;51.838;5.838;2022-10-03T01:51:10;7.80;99.90
21306;DHT22;10812;51.838;5.838;2022-10-03T01:53:59;7.80;99.90
21306;DHT22;10812;51.838;5.838;2022-10-03T01:56:34;7.80;99.90
21306;DHT22;10812;51.838;5.838;2022-10-03T01:59:08;7.80;99.90
21306;DHT22;10812;51.838;5.838;2022-10-03T02:01:48;7.80;99.90
21306;DHT22;10812;51.838;5.838;2022-10-03T02:04:27;7.80;99.90
21306;DHT22;10812;51.838;5.838;2022-10-03T02:07:04;7.80;99.90
21306;DHT22;10812;51.838;5.838;2022-10-03T02:09:47;7.70;99.90
21306;DHT22;10812;51.838;5.838;2022-10-03T02:12:24;7.70;99.90
21306;DHT22;10812;51.838;5.838;2022-10-03T02:15:00;7.70;99.90
21306;DHT22;10812;51.838;5.838;2022-10-03T02:17:43;7.60;99.90
21306;DHT22;10812;51.838;5.838;2022-10-03T02:20:22;7.70;99.90
21306;DHT22;10812;51.838;5.838;2022-10-03T02:22:53;7.70;99.90
21306;DHT22;10812;51.838;5.838;2022-10-03T02:25:30;7.70;99.90
21306;DHT22;10812;51.838;5.838;2022-10-03T02:28:30;7.70;99.90
21306;DHT22;10812;51.838;5.838;2022-10-03T02:31:22;7.80;99.90
21306;DHT22;10812;51.838;5.838;2022-10-03T02:34:25;7.80;99.90
21306;DHT22;10812;51.838;5.838;2022-10-03T02:50:15;7.80;99.90
21306;DHT22;10812;51.838;5.838;2022-10-03T02:53:11;7.80;99.90
21306;DHT22;10812;51.838;5.838;2022-10-03T02:56:14;7.80;99.90
21306;DHT22;10812;51.838;5.838;2022-10-03T02:59:11;7.80;99.90
21306;DHT22;10812;51.838;5.838;2022-10-03T03:07:31;7.70;99.90
21306;DHT22;10812;51.838;5.838;2022-10-03T03:10:31;7.70;99.90
21306;DHT22;10812;51.838;5.838;2022-10-03T03:16:40;7.60;99.90
21306;DHT22;10812;51.838;5.838;2022-10-03T03:19:33;7.70;99.90
21306;DHT22;10812;51.838;5.838;2022-10-03T03:22:17;7.60;99.90
21306;DHT22;10812;51.838;5.838;2022-10-03T03:25:04;7.70;99.90
21306;DHT22;10812;51.838;5.838;2022-10-03T03:27:47;7.70;99.90
21306;DHT22;10812;51.838;5.838;2022-10-03T03:30:20;7.70;99.90
21306;DHT22;10812;51.838;5.838;2022-10-03T03:37:18;7.70;99.90
21306;DHT22;10812;51.838;5.838;2022-10-03T03:40:02;7.70;99.90
21306;DHT22;10812;51.838;5.838;2022-10-03T03:45:42;7.70;99.90
21306;DHT22;10812;51.838;5.838;2022-10-03T03:48:30;7.70;99.90
21306;DHT22;10812;51.838;5.838;2022-10-03T03:51:14;7.60;99.90
21306;DHT22;10812;51.838;5.838;2022-10-03T03:54:03;7.60;99.90
21306;DHT22;10812;51.838;5.838;2022-10-03T03:56:54;7.60;99.90
21306;DHT22;10812;51.838;5.838;2022-10-03T03:59:38;7.60;99.90
21306;DHT22;10812;51.838;5.838;2022-10-03T04:02:22;7.70;99.90
21306;DHT22;10812;51.838;5.838;2022-10-03T04:05:06;7.60;99.90
21306;DHT22;10812;51.838;5.838;2022-10-03T04:07:48;7.60;99.90
21306;DHT22;10812;51.838;5.838;2022-10-03T04:10:38;7.60;99.90
21306;DHT22;10812;51.838;5.838;2022-10-03T04:13:24;7.60;99.90
21306;DHT22;10812;51.838;5.838;2022-10-03T04:19:25;7.60;99.90
21306;DHT22;10812;51.838;5.838;2022-10-03T04:22:10;7.60;99.90
21306;DHT22;10812;51.838;5.838;2022-10-03T04:25:03;7.50;99.90
21306;DHT22;10812;51.838;5.838;2022-10-03T04:28:04;7.50;99.90
21306;DHT22;10812;51.838;5.838;2022-10-03T04:30:45;7.50;99.90
21306;DHT22;10812;51.838;5.838;2022-10-03T04:33:27;7.50;99.90
21306;DHT22;10812;51.838;5.838;2022-10-03T04:39:06;7.50;99.90
21306;DHT22;10812;51.838;5.838;2022-10-03T04:41:43;7.50;99.90
21306;DHT22;10812;51.838;5.838;2022-10-03T04:44:34;7.40;99.90
21306;DHT22;10812;51.838;5.838;2022-10-03T04:47:13;7.40;99.90
21306;DHT22;10812;51.838;5.838;2022-10-03T04:49:46;7.40;99.90
21306;DHT22;10812;51.838;5.838;2022-10-03T04:52:23;7.30;99.90
21306;DHT22;10812;51.838;5.838;2022-10-03T04:55:00;7.30;99.90
21306;DHT22;10812;51.838;5.838;2022-10-03T04:57:43;7.30;99.90
21306;DHT22;10812;51.838;5.838;2022-10-03T05:00:20;7.30;99.90
21306;DHT22;10812;51.838;5.838;2022-10-03T05:02:57;7.30;99.90
21306;DHT22;10812;51.838;5.838;2022-10-03T05:05:50;7.40;99.90
21306;DHT22;10812;51.838;5.838;2022-10-03T05:08:37;7.30;99.90
21306;DHT22;10812;51.838;5.838;2022-10-03T05:11:14;7.30;99.90
21306;DHT22;10812;51.838;5.838;2022-10-03T05:13:56;7.30;99.90
21306;DHT22;10812;51.838;5.838;2022-10-03T05:16:36;7.30;99.90
21306;DHT22;10812;51.838;5.838;2022-10-03T05:19:35;7.20;99.90
21306;DHT22;10812;51.838;5.838;2022-10-03T05:22:11;7.30;99.90
21306;DHT22;10812;51.838;5.838;2022-10-03T05:24:48;7.30;99.90
21306;DHT22;10812;51.838;5.838;2022-10-03T05:27:25;7.30;99.90
21306;DHT22;10812;51.838;5.838;2022-10-03T05:30:04;7.30;99.90
21306;DHT22;10812;51.838;5.838;2022-10-03T05:32:40;7.40;99.90
21306;DHT22;10812;51.838;5.838;2022-10-03T05:35:23;7.40;99.90
21306;DHT22;10812;51.838;5.838;2022-10-03T05:38:19;7.30;99.90
21306;DHT22;10812;51.838;5.838;2022-10-03T05:41:00;7.30;99.90
21306;DHT22;10812;51.838;5.838;2022-10-03T05:43:43;7.40;99.90
21306;DHT22;10812;51.838;5.838;2022-10-03T05:46:20;7.40;99.90
21306;DHT22;10812;51.838;5.838;2022-10-03T05:48:55;7.40;99.90
21306;DHT22;10812;51.838;5.838;2022-10-03T05:51:59;7.40;99.90
21306;DHT22;10812;51.838;5.838;2022-10-03T05:55:09;7.40;99.90
21306;DHT22;10812;51.838;5.838;2022-10-03T06:01:20;7.50;99.90
21306;DHT22;10812;51.838;5.838;2022-10-03T06:06:58;7.60;99.90
21306;DHT22;10812;51.838;5.838;2022-10-03T06:09:46;7.70;99.90
21306;DHT22;10812;51.838;5.838;2022-10-03T06:12:24;7.80;99.90
21306;DHT22;10812;51.838;5.838;2022-10-03T06:15:23;7.80;99.90
21306;DHT22;10812;51.838;5.838;2022-10-03T06:18:01;7.90;99.90
21306;DHT22;10812;51.838;5.838;2022-10-03T06:30:14;8.70;99.90
21306;DHT22;10812;51.838;5.838;2022-10-03T06:33:15;9.80;99.90
21306;DHT22;10812;51.838;5.838;2022-10-03T06:36:23;11.30;99.90
21306;DHT22;10812;51.838;5.838;2022-10-03T06:39:32;12.20;99.90
21306;DHT22;10812;51.838;5.838;2022-10-03T06:42:26;13.30;99.90
21306;DHT22;10812;51.838;5.838;2022-10-03T06:48:23;14.50;99.90
21306;DHT22;10812;51.838;5.838;2022-10-03T06:51:04;15.60;99.90
21306;DHT22;10812;51.838;5.838;2022-10-03T06:54:02;16.40;99.90
21306;DHT22;10812;51.838;5.838;2022-10-03T06:57:05;17.20;99.90
21306;DHT22;10812;51.838;5.838;2022-10-03T07:00:02;17.70;99.90
21306;DHT22;10812;51.838;5.838;2022-10-03T07:03:03;18.20;99.90
21306;DHT22;10812;51.838;5.838;2022-10-03T07:06:15;18.50;99.90
21306;DHT22;10812;51.838;5.838;2022-10-03T07:12:24;19.60;99.90
21306;DHT22;10812;51.838;5.838;2022-10-03T07:22:03;20.90;99.90
21306;DHT22;10812;51.838;5.838;2022-10-03T07:27:59;21.50;99.90
21306;DHT22;10812;51.838;5.838;2022-10-03T07:30:44;21.80;99.90
21306;DHT22;10812;51.838;5.838;2022-10-03T07:33:51;22.10;99.90
21306;DHT22;10812;51.838;5.838;2022-10-03T07:36:47;21.80;99.90
21306;DHT22;10812;51.838;5.838;2022-10-03T07:49:01;22.20;99.90
21306;DHT22;10812;51.838;5.838;2022-10-03T07:51:39;22.40;99.90
21306;DHT22;10812;51.838;5.838;2022-10-03T07:54:39;22.70;99.90
21306;DHT22;10812;51.838;5.838;2022-10-03T07:57:25;22.50;99.90
21306;DHT22;10812;51.838;5.838;2022-10-03T08:00:17;22.50;99.90
21306;DHT22;10812;51.838;5.838;2022-10-03T08:03:39;22.50;99.90
21306;DHT22;10812;51.838;5.838;2022-10-03T08:06:16;22.80;99.90
21306;DHT22;10812;51.838;5.838;2022-10-03T08:09:20;22.80;99.90
21306;DHT22;10812;51.838;5.838;2022-10-03T08:22:37;23.10;99.90
21306;DHT22;10812;51.838;5.838;2022-10-03T08:25:27;23.00;99.90
21306;DHT22;10812;51.838;5.838;2022-10-03T08:28:27;23.10;99.90
21306;DHT22;10812;51.838;5.838;2022-10-03T08:31:24;22.70;99.90
21306;DHT22;10812;51.838;5.838;2022-10-03T08:34:37;22.40;99.90
21306;DHT22;10812;51.838;5.838;2022-10-03T08:37:35;22.10;99.90
21306;DHT22;10812;51.838;5.838;2022-10-03T08:40:49;22.00;99.90
21306;DHT22;10812;51.838;5.838;2022-10-03T08:43:54;22.00;99.90
21306;DHT22;10812;51.838;5.838;2022-10-03T08:49:52;22.40;99.90
21306;DHT22;10812;51.838;5.838;2022-10-03T08:52:41;23.00;99.90
21306;DHT22;10812;51.838;5.838;2022-10-03T08:55:44;23.50;99.90
21306;DHT22;10812;51.838;5.838;2022-10-03T09:01:33;23.40;99.90
21306;DHT22;10812;51.838;5.838;2022-10-03T09:04:49;23.30;99.90
21306;DHT22;10812;51.838;5.838;2022-10-03T09:07:45;22.90;99.90
21306;DHT22;10812;51.838;5.838;2022-10-03T09:10:33;22.90;99.90
21306;DHT22;10812;51.838;5.838;2022-10-03T09:13:30;23.10;99.90
21306;DHT22;10812;51.838;5.838;2022-10-03T09:16:37;22.70;99.90
21306;DHT22;10812;51.838;5.838;2022-10-03T09:22:47;22.80;99.90
21306;DHT22;10812;51.838;5.838;2022-10-03T09:25:33;22.70;99.90
21306;DHT22;10812;51.838;5.838;2022-10-03T09:28:26;23.00;99.90
21306;DHT22;10812;51.838;5.838;2022-10-03T09:31:10;22.70;99.90
21306;DHT22;10812;51.838;5.838;2022-10-03T09:34:04;22.90;99.90
21306;DHT22;10812;51.838;5.838;2022-10-03T09:43:04;23.30;99.90
21306;DHT22;10812;51.838;5.838;2022-10-03T09:45:52;23.50;99.90
21306;DHT22;10812;51.838;5.838;2022-10-03T09:48:43;23.00;99.90
21306;DHT22;10812;51.838;5.838;2022-10-03T09:51:20;22.40;99.90
21306;DHT22;10812;51.838;5.838;2022-10-03T10:00:19;22.30;99.90
21306;DHT22;10812;51.838;5.838;2022-10-03T10:06:05;21.30;99.90
21306;DHT22;10812;51.838;5.838;2022-10-03T10:08:48;20.80;99.90
21306;DHT22;10812;51.838;5.838;2022-10-03T10:11:34;20.40;99.90
21306;DHT22;10812;51.838;5.838;2022-10-03T10:20:33;19.60;99.90
21306;DHT22;10812;51.838;5.838;2022-10-03T10:23:20;19.20;99.90
21306;DHT22;10812;51.838;5.838;2022-10-03T10:29:18;19.30;99.90
21306;DHT22;10812;51.838;5.838;2022-10-03T10:38:32;19.40;99.90
21306;DHT22;10812;51.838;5.838;2022-10-03T10:41:33;19.50;99.90
21306;DHT22;10812;51.838;5.838;2022-10-03T10:44:35;19.60;99.90
21306;DHT22;10812;51.838;5.838;2022-10-03T11:12:26;18.80;99.90
21306;DHT22;10812;51.838;5.838;2022-10-03T11:22:00;19.00;99.90
21306;DHT22;10812;51.838;5.838;2022-10-03T11:28:21;18.90;99.90
21306;DHT22;10812;51.838;5.838;2022-10-03T11:37:40;18.30;99.90
21306;DHT22;10812;51.838;5.838;2022-10-03T11:40:34;18.20;99.90
21306;DHT22;10812;51.838;5.838;2022-10-03T11:46:21;18.40;99.90
21306;DHT22;10812;51.838;5.838;2022-10-03T11:48:53;18.60;99.90
21306;DHT22;10812;51.838;5.838;2022-10-03T11:51:39;18.90;99.90
21306;DHT22;10812;51.838;5.838;2022-10-03T11:54:18;19.20;99.90
21306;DHT22;10812;51.838;5.838;2022-10-03T11:57:00;19.30;99.90
21306;DHT22;10812;51.838;5.838;2022-10-03T11:59:53;19.50;99.90
21306;DHT22;10812;51.838;5.838;2022-10-03T12:02:49;19.40;99.90
21306;DHT22;10812;51.838;5.838;2022-10-03T12:05:26;19.40;99.90
21306;DHT22;10812;51.838;5.838;2022-10-03T12:08:09;19.60;99.90
21306;DHT22;10812;51.838;5.838;2022-10-03T12:11:04;19.60;99.90
21306;DHT22;10812;51.838;5.838;2022-10-03T12:13:40;19.30;99.90
21306;DHT22;10812;51.838;5.838;2022-10-03T12:16:16;19.20;99.90
21306;DHT22;10812;51.838;5.838;2022-10-03T12:18:55;19.40;99.90
21306;DHT22;10812;51.838;5.838;2022-10-03T12:21:33;19.50;99.90
21306;DHT22;10812;51.838;5.838;2022-10-03T12:24:19;19.30;99.90
21306;DHT22;10812;51.838;5.838;2022-10-03T12:26:57;19.10;99.90
21306;DHT22;10812;51.838;5.838;2022-10-03T12:29:30;19.20;99.90
21306;DHT22;10812;51.838;5.838;2022-10-03T12:32:13;19.30;99.90
21306;DHT22;10812;51.838;5.838;2022-10-03T12:34:49;19.50;99.90
21306;DHT22;10812;51.838;5.838;2022-10-03T12:37:39;19.50;99.90
21306;DHT22;10812;51.838;5.838;2022-10-03T12:40:16;19.30;99.90
21306;DHT22;10812;51.838;5.838;2022-10-03T12:43:01;19.20;99.90
21306;DHT22;10812;51.838;5.838;2022-10-03T12:45:35;19.10;99.90
21306;DHT22;10812;51.838;5.838;2022-10-03T12:48:26;19.20;99.90
21306;DHT22;10812;51.838;5.838;2022-10-03T12:51:00;19.00;99.90
21306;DHT22;10812;51.838;5.838;2022-10-03T12:53:40;18.90;99.90
21306;DHT22;10812;51.838;5.838;2022-10-03T12:56:14;18.80;99.90
21306;DHT22;10812;51.838;5.838;2022-10-03T12:58:54;18.80;99.90
21306;DHT22;10812;51.838;5.838;2022-10-03T13:01:29;18.60;99.90
21306;DHT22;10812;51.838;5.838;2022-10-03T13:04:07;18.50;99.90
21306;DHT22;10812;51.838;5.838;2022-10-03T13:06:41;18.50;99.90
21306;DHT22;10812;51.838;5.838;2022-10-03T13:09:56;18.50;99.90
21306;DHT22;10812;51.838;5.838;2022-10-03T13:12:34;18.40;99.90
21306;DHT22;10812;51.838;5.838;2022-10-03T13:18:17;18.50;99.90
21306;DHT22;10812;51.838;5.838;2022-10-03T13:20:54;18.70;99.90
21306;DHT22;10812;51.838;5.838;2022-10-03T13:23:32;19.00;99.90
21306;DHT22;10812;51.838;5.838;2022-10-03T13:26:09;19.20;99.90
21306;DHT22;10812;51.838;5.838;2022-10-03T13:28:54;19.20;99.90
21306;DHT22;10812;51.838;5.838;2022-10-03T13:31:28;19.20;99.90
21306;DHT22;10812;51.838;5.838;2022-10-03T13:34:01;19.10;99.90
21306;DHT22;10812;51.838;5.838;2022-10-03T13:36:36;19.30;99.90
21306;DHT22;10812;51.838;5.838;2022-10-03T13:39:13;19.10;99.90
21306;DHT22;10812;51.838;5.838;2022-10-03T13:41:57;19.00;99.90
21306;DHT22;10812;51.838;5.838;2022-10-03T13:44:37;19.00;99.90
21306;DHT22;10812;51.838;5.838;2022-10-03T13:47:24;19.00;99.90
21306;DHT22;10812;51.838;5.838;2022-10-03T13:49:58;18.90;99.90
21306;DHT22;10812;51.838;5.838;2022-10-03T13:52:35;18.90;99.90
21306;DHT22;10812;51.838;5.838;2022-10-03T13:55:28;19.00;99.90
21306;DHT22;10812;51.838;5.838;2022-10-03T13:58:19;18.90;99.90
21306;DHT22;10812;51.838;5.838;2022-10-03T14:01:06;18.90;99.90
21306;DHT22;10812;51.838;5.838;2022-10-03T14:03:45;19.00;99.90
21306;DHT22;10812;51.838;5.838;2022-10-03T14:06:27;19.20;99.90
21306;DHT22;10812;51.838;5.838;2022-10-03T14:09:37;19.10;99.90
21306;DHT22;10812;51.838;5.838;2022-10-03T14:12:20;18.80;99.90
21306;DHT22;10812;51.838;5.838;2022-10-03T14:15:26;18.80;99.90
21306;DHT22;10812;51.838;5.838;2022-10-03T14:18:06;18.90;99.90
21306;DHT22;10812;51.838;5.838;2022-10-03T14:23:50;18.80;99.90
21306;DHT22;10812;51.838;5.838;2022-10-03T14:26:27;18.60;99.90
21306;DHT22;10812;51.838;5.838;2022-10-03T14:28:59;18.40;99.90
21306;DHT22;10812;51.838;5.838;2022-10-03T14:31:34;18.30;99.90
21306;DHT22;10812;51.838;5.838;2022-10-03T14:34:10;18.50;99.90
21306;DHT22;10812;51.838;5.838;2022-10-03T14:36:46;18.50;99.90
21306;DHT22;10812;51.838;5.838;2022-10-03T14:39:30;18.40;99.90
21306;DHT22;10812;51.838;5.838;2022-10-03T14:42:30;18.60;99.90
21306;DHT22;10812;51.838;5.838;2022-10-03T14:45:02;18.60;99.90
21306;DHT22;10812;51.838;5.838;2022-10-03T14:47:37;18.70;99.90
21306;DHT22;10812;51.838;5.838;2022-10-03T14:50:11;18.60;99.90
21306;DHT22;10812;51.838;5.838;2022-10-03T14:52:44;18.70;99.90
21306;DHT22;10812;51.838;5.838;2022-10-03T14:55:17;18.70;99.90
21306;DHT22;10812;51.838;5.838;2022-10-03T14:57:48;18.60;99.90
21306;DHT22;10812;51.838;5.838;2022-10-03T15:00:39;18.30;99.90
21306;DHT22;10812;51.838;5.838;2022-10-03T15:03:21;18.20;99.90
21306;DHT22;10812;51.838;5.838;2022-10-03T15:05:57;18.00;99.90
21306;DHT22;10812;51.838;5.838;2022-10-03T15:08:33;17.90;99.90
21306;DHT22;10812;51.838;5.838;2022-10-03T15:11:07;17.90;99.90
21306;DHT22;10812;51.838;5.838;2022-10-03T15:13:39;17.90;99.90
21306;DHT22;10812;51.838;5.838;2022-10-03T15:16:14;17.90;99.90
21306;DHT22;10812;51.838;5.838;2022-10-03T15:18:51;17.90;99.90
21306;DHT22;10812;51.838;5.838;2022-10-03T15:21:20;17.80;99.90
21306;DHT22;10812;51.838;5.838;2022-10-03T15:23:53;17.80;99.90
21306;DHT22;10812;51.838;5.838;2022-10-03T15:26:25;17.80;99.90
21306;DHT22;10812;51.838;5.838;2022-10-03T15:28:56;17.70;99.90
21306;DHT22;10812;51.838;5.838;2022-10-03T15:31:32;17.80;99.90
21306;DHT22;10812;51.838;5.838;2022-10-03T15:34:03;17.80;99.90
21306;DHT22;10812;51.838;5.838;2022-10-03T15:36:36;17.80;99.90
21306;DHT22;10812;51.838;5.838;2022-10-03T15:39:14;17.90;99.90
21306;DHT22;10812;51.838;5.838;2022-10-03T15:41:52;17.80;99.90
21306;DHT22;10812;51.838;5.838;2022-10-03T15:44:24;17.80;99.90
21306;DHT22;10812;51.838;5.838;2022-10-03T15:47:02;17.80;99.90
21306;DHT22;10812;51.838;5.838;2022-10-03T15:49:34;17.70;99.90
21306;DHT22;10812;51.838;5.838;2022-10-03T15:52:14;17.60;99.90
21306;DHT22;10812;51.838;5.838;2022-10-03T15:54:49;17.60;99.90
21306;DHT22;10812;51.838;5.838;2022-10-03T15:57:35;17.40;99.90
21306;DHT22;10812;51.838;5.838;2022-10-03T16:00:06;17.30;99.90
21306;DHT22;10812;51.838;5.838;2022-10-03T16:02:37;17.20;99.90
21306;DHT22;10812;51.838;5.838;2022-10-03T16:05:16;17.10;99.90
21306;DHT22;10812;51.838;5.838;2022-10-03T16:07:55;17.00;99.90
21306;DHT22;10812;51.838;5.838;2022-10-03T16:10:26;16.90;99.90
21306;DHT22;10812;51.838;5.838;2022-10-03T16:12:59;16.80;99.90
21306;DHT22;10812;51.838;5.838;2022-10-03T16:15:42;16.70;99.90
21306;DHT22;10812;51.838;5.838;2022-10-03T16:21:18;16.50;99.90
21306;DHT22;10812;51.838;5.838;2022-10-03T16:23:51;16.50;99.90
21306;DHT22;10812;51.838;5.838;2022-10-03T16:26:23;16.40;99.90
21306;DHT22;10812;51.838;5.838;2022-10-03T16:29:01;16.40;99.90
21306;DHT22;10812;51.838;5.838;2022-10-03T16:31:35;16.30;99.90
21306;DHT22;10812;51.838;5.838;2022-10-03T16:34:11;16.20;99.90
21306;DHT22;10812;51.838;5.838;2022-10-03T16:36:42;16.20;99.90
21306;DHT22;10812;51.838;5.838;2022-10-03T16:39:19;16.20;99.90
21306;DHT22;10812;51.838;5.838;2022-10-03T16:41:50;16.20;99.90
21306;DHT22;10812;51.838;5.838;2022-10-03T16:44:23;16.10;99.90
21306;DHT22;10812;51.838;5.838;2022-10-03T16:46:54;16.10;99.90
21306;DHT22;10812;51.838;5.838;2022-10-03T16:49:35;16.00;99.90
21306;DHT22;10812;51.838;5.838;2022-10-03T16:52:20;15.90;99.90
21306;DHT22;10812;51.838;5.838;2022-10-03T16:54:59;15.90;99.90
21306;DHT22;10812;51.838;5.838;2022-10-03T16:57:36;15.90;99.90
21306;DHT22;10812;51.838;5.838;2022-10-03T17:00:15;15.90;99.90
21306;DHT22;10812;51.838;5.838;2022-10-03T17:02:45;15.80;99.90
21306;DHT22;10812;51.838;5.838;2022-10-03T17:05:17;15.70;99.90
21306;DHT22;10812;51.838;5.838;2022-10-03T17:07:50;15.60;99.90
21306;DHT22;10812;51.838;5.838;2022-10-03T17:10:33;15.50;99.90
21306;DHT22;10812;51.838;5.838;2022-10-03T17:13:10;15.50;99.90
21306;DHT22;10812;51.838;5.838;2022-10-03T17:15:45;15.40;99.90
21306;DHT22;10812;51.838;5.838;2022-10-03T17:18:21;15.30;99.90
21306;DHT22;10812;51.838;5.838;2022-10-03T17:20:54;15.20;99.90
21306;DHT22;10812;51.838;5.838;2022-10-03T17:23:28;15.10;99.90
21306;DHT22;10812;51.838;5.838;2022-10-03T17:26:03;15.00;99.90
21306;DHT22;10812;51.838;5.838;2022-10-03T17:28:41;14.90;99.90
21306;DHT22;10812;51.838;5.838;2022-10-03T17:31:28;14.80;99.90
21306;DHT22;10812;51.838;5.838;2022-10-03T17:34:03;14.70;99.90
21306;DHT22;10812;51.838;5.838;2022-10-03T17:39:53;14.60;99.90
21306;DHT22;10812;51.838;5.838;2022-10-03T17:42:34;14.60;99.90
21306;DHT22;10812;51.838;5.838;2022-10-03T17:45:16;14.50;99.90
21306;DHT22;10812;51.838;5.838;2022-10-03T17:47:53;14.40;99.90
21306;DHT22;10812;51.838;5.838;2022-10-03T17:50:27;14.30;99.90
21306;DHT22;10812;51.838;5.838;2022-10-03T17:52:58;14.30;99.90
21306;DHT22;10812;51.838;5.838;2022-10-03T17:55:30;14.30;99.90
21306;DHT22;10812;51.838;5.838;2022-10-03T17:58:03;14.30;99.90
21306;DHT22;10812;51.838;5.838;2022-10-03T18:00:34;14.30;99.90
21306;DHT22;10812;51.838;5.838;2022-10-03T18:03:07;14.30;99.90
21306;DHT22;10812;51.838;5.838;2022-10-03T18:05:40;14.30;99.90
21306;DHT22;10812;51.838;5.838;2022-10-03T18:08:13;14.40;99.90
21306;DHT22;10812;51.838;5.838;2022-10-03T18:10:47;14.40;99.90
21306;DHT22;10812;51.838;5.838;2022-10-03T18:13:20;14.40;99.90
21306;DHT22;10812;51.838;5.838;2022-10-03T18:16:15;14.40;99.90
21306;DHT22;10812;51.838;5.838;2022-10-03T18:19:08;14.40;99.90
21306;DHT22;10812;51.838;5.838;2022-10-03T18:21:56;14.30;99.90
21306;DHT22;10812;51.838;5.838;2022-10-03T18:24:49;14.20;99.90
21306;DHT22;10812;51.838;5.838;2022-10-03T18:30:19;14.20;99.90
21306;DHT22;10812;51.838;5.838;2022-10-03T18:32:48;14.10;99.90
21306;DHT22;10812;51.838;5.838;2022-10-03T18:35:20;14.10;99.90
21306;DHT22;10812;51.838;5.838;2022-10-03T18:38:00;14.00;99.90
21306;DHT22;10812;51.838;5.838;2022-10-03T18:40:33;13.90;99.90
21306;DHT22;10812;51.838;5.838;2022-10-03T18:43:03;13.90;99.90
21306;DHT22;10812;51.838;5.838;2022-10-03T18:45:36;13.80;99.90
21306;DHT22;10812;51.838;5.838;2022-10-03T18:48:12;13.70;99.90
21306;DHT22;10812;51.838;5.838;2022-10-03T18:50:56;13.70;99.90
21306;DHT22;10812;51.838;5.838;2022-10-03T18:53:32;13.70;99.90
21306;DHT22;10812;51.838;5.838;2022-10-03T18:56:05;13.60;99.90
21306;DHT22;10812;51.838;5.838;2022-10-03T18:58:37;13.60;99.90
21306;DHT22;10812;51.838;5.838;2022-10-03T19:01:14;13.60;99.90
21306;DHT22;10812;51.838;5.838;2022-10-03T19:03:52;13.50;99.90
21306;DHT22;10812;51.838;5.838;2022-10-03T19:06:26;13.50;99.90
21306;DHT22;10812;51.838;5.838;2022-10-03T19:08:57;13.40;99.90
21306;DHT22;10812;51.838;5.838;2022-10-03T19:11:29;13.40;99.90
21306;DHT22;10812;51.838;5.838;2022-10-03T19:14:02;13.40;99.90
21306;DHT22;10812;51.838;5.838;2022-10-03T19:16:54;13.50;99.90
21306;DHT22;10812;51.838;5.838;2022-10-03T19:19:28;13.40;99.90
21306;DHT22;10812;51.838;5.838;2022-10-03T19:22:04;13.40;99.90
21306;DHT22;10812;51.838;5.838;2022-10-03T19:24:33;13.30;99.90
21306;DHT22;10812;51.838;5.838;2022-10-03T19:27:37;13.30;99.90
21306;DHT22;10812;51.838;5.838;2022-10-03T19:30:07;13.30;99.90
21306;DHT22;10812;51.838;5.838;2022-10-03T19:32:46;13.30;99.90
21306;DHT22;10812;51.838;5.838;2022-10-03T19:35:17;13.30;99.90
21306;DHT22;10812;51.838;5.838;2022-10-03T19:37:51;13.20;99.90
21306;DHT22;10812;51.838;5.838;2022-10-03T19:40:43;13.20;99.90
21306;DHT22;10812;51.838;5.838;2022-10-03T19:43:33;13.20;99.90
21306;DHT22;10812;51.838;5.838;2022-10-03T19:49:19;13.30;99.90
21306;DHT22;10812;51.838;5.838;2022-10-03T19:51:50;13.30;99.90
21306;DHT22;10812;51.838;5.838;2022-10-03T19:54:31;13.30;99.90
21306;DHT22;10812;51.838;5.838;2022-10-03T19:57:02;13.30;99.90
21306;DHT22;10812;51.838;5.838;2022-10-03T19:59:43;13.30;99.90
21306;DHT22;10812;51.838;5.838;2022-10-03T20:02:12;13.30;99.90
21306;DHT22;10812;51.838;5.838;2022-10-03T20:04:40;13.30;99.90
21306;DHT22;10812;51.838;5.838;2022-10-03T20:07:13;13.30;99.90
21306;DHT22;10812;51.838;5.838;2022-10-03T20:09:54;13.40;99.90
21306;DHT22;10812;51.838;5.838;2022-10-03T20:12:26;13.40;99.90
21306;DHT22;10812;51.838;5.838;2022-10-03T20:14:58;13.30;99.90
21306;DHT22;10812;51.838;5.838;2022-10-03T20:17:29;13.40;99.90
21306;DHT22;10812;51.838;5.838;2022-10-03T20:20:03;13.30;99.90
21306;DHT22;10812;51.838;5.838;2022-10-03T20:22:33;13.30;99.90
21306;DHT22;10812;51.838;5.838;2022-10-03T20:25:06;13.20;99.90
21306;DHT22;10812;51.838;5.838;2022-10-03T20:27:48;13.20;99.90
21306;DHT22;10812;51.838;5.838;2022-10-03T20:30:23;13.30;99.90